sensor_id;sensor_type;location;lat;lon;timestamp;P1;durP1;ratioP1;P2;durP2;ratioP2
56425;SDS011;42330;43.620;3.856;2022-07-24T00:02:02;13.50;;;2.63;;
56425;SDS011;42330;43.620;3.856;2022-07-24T00:04:28;6.95;;;2.45;;
56425;SDS011;42330;43.620;3.856;2022-07-24T00:06:54;5.50;;;2.50;;
56425;SDS011;42330;43.620;3.856;2022-07-24T00:09:19;4.05;;;2.33;;
56425;SDS011;42330;43.620;3.856;2022-07-24T00:11:45;5.70;;;2.40;;
56425;SDS011;42330;43.620;3.856;2022-07-24T00:14:11;4.70;;;2.50;;
56425;SDS011;42330;43.620;3.856;2022-07-24T00:16:36;5.28;;;2.30;;
56425;SDS011;42330;43.620;3.856;2022-07-24T00:19:03;4.75;;;2.05;;
56425;SDS011;42330;43.620;3.856;2022-07-24T00:21:28;3.90;;;2.25;;
56425;SDS011;42330;43.620;3.856;2022-07-24T00:23:54;4.60;;;2.38;;
56425;SDS011;42330;43.620;3.856;2022-07-24T00:26:20;3.65;;;2.20;;
56425;SDS011;42330;43.620;3.856;2022-07-24T00:28:45;4.95;;;2.15;;
56425;SDS011;42330;43.620;3.856;2022-07-24T00:31:13;8.10;;;2.50;;
56425;SDS011;42330;43.620;3.856;2022-07-24T00:33:38;4.38;;;2.40;;
56425;SDS011;42330;43.620;3.856;2022-07-24T00:36:04;6.03;;;2.10;;
56425;SDS011;42330;43.620;3.856;2022-07-24T00:38:30;3.80;;;2.42;;
56425;SDS011;42330;43.620;3.856;2022-07-24T00:40:56;5.72;;;2.20;;
56425;SDS011;42330;43.620;3.856;2022-07-24T00:43:22;5.70;;;2.47;;
56425;SDS011;42330;43.620;3.856;2022-07-24T00:45:47;3.05;;;2.17;;
56425;SDS011;42330;43.620;3.856;2022-07-24T00:48:13;4.45;;;2.30;;
56425;SDS011;42330;43.620;3.856;2022-07-24T00:50:41;4.20;;;2.28;;
56425;SDS011;42330;43.620;3.856;2022-07-24T00:53:08;3.95;;;2.40;;
56425;SDS011;42330;43.620;3.856;2022-07-24T00:55:34;4.03;;;2.25;;
56425;SDS011;42330;43.620;3.856;2022-07-24T00:58:00;3.72;;;2.53;;
56425;SDS011;42330;43.620;3.856;2022-07-24T01:00:26;5.63;;;2.20;;
56425;SDS011;42330;43.620;3.856;2022-07-24T01:02:52;3.72;;;2.10;;
56425;SDS011;42330;43.620;3.856;2022-07-24T01:05:18;3.67;;;2.28;;
56425;SDS011;42330;43.620;3.856;2022-07-24T01:07:44;3.15;;;2.05;;
56425;SDS011;42330;43.620;3.856;2022-07-24T01:10:10;5.10;;;2.20;;
56425;SDS011;42330;43.620;3.856;2022-07-24T01:12:37;3.33;;;2.40;;
56425;SDS011;42330;43.620;3.856;2022-07-24T01:15:04;4.30;;;2.38;;
56425;SDS011;42330;43.620;3.856;2022-07-24T01:17:33;3.25;;;2.30;;
56425;SDS011;42330;43.620;3.856;2022-07-24T01:20:00;4.13;;;2.10;;
56425;SDS011;42330;43.620;3.856;2022-07-24T01:22:27;4.80;;;2.22;;
56425;SDS011;42330;43.620;3.856;2022-07-24T01:24:53;3.33;;;2.40;;
56425;SDS011;42330;43.620;3.856;2022-07-24T01:27:20;5.18;;;2.40;;
56425;SDS011;42330;43.620;3.856;2022-07-24T01:29:46;3.45;;;2.40;;
56425;SDS011;42330;43.620;3.856;2022-07-24T01:32:12;4.57;;;2.33;;
56425;SDS011;42330;43.620;3.856;2022-07-24T01:34:38;3.85;;;2.22;;
56425;SDS011;42330;43.620;3.856;2022-07-24T01:37:03;3.63;;;2.05;;
56425;SDS011;42330;43.620;3.856;2022-07-24T01:39:29;3.40;;;2.20;;
56425;SDS011;42330;43.620;3.856;2022-07-24T01:41:55;3.33;;;2.13;;
56425;SDS011;42330;43.620;3.856;2022-07-24T01:44:20;3.60;;;2.22;;
56425;SDS011;42330;43.620;3.856;2022-07-24T01:46:47;4.00;;;2.10;;
56425;SDS011;42330;43.620;3.856;2022-07-24T01:49:12;3.85;;;2.33;;
56425;SDS011;42330;43.620;3.856;2022-07-24T01:51:38;3.78;;;2.10;;
56425;SDS011;42330;43.620;3.856;2022-07-24T01:54:04;3.35;;;2.33;;
56425;SDS011;42330;43.620;3.856;2022-07-24T01:56:30;4.15;;;2.53;;
56425;SDS011;42330;43.620;3.856;2022-07-24T01:58:57;3.45;;;2.22;;
56425;SDS011;42330;43.620;3.856;2022-07-24T02:01:23;4.32;;;2.38;;
56425;SDS011;42330;43.620;3.856;2022-07-24T02:03:49;6.03;;;2.30;;
56425;SDS011;42330;43.620;3.856;2022-07-24T02:06:15;2.97;;;2.05;;
56425;SDS011;42330;43.620;3.856;2022-07-24T02:08:41;6.07;;;2.10;;
56425;SDS011;42330;43.620;3.856;2022-07-24T02:11:06;5.55;;;2.20;;
56425;SDS011;42330;43.620;3.856;2022-07-24T02:13:32;4.13;;;2.13;;
56425;SDS011;42330;43.620;3.856;2022-07-24T02:15:59;2.72;;;2.10;;
56425;SDS011;42330;43.620;3.856;2022-07-24T02:18:24;5.35;;;2.00;;
56425;SDS011;42330;43.620;3.856;2022-07-24T02:20:50;4.70;;;2.25;;
56425;SDS011;42330;43.620;3.856;2022-07-24T02:23:16;2.30;;;1.90;;
56425;SDS011;42330;43.620;3.856;2022-07-24T02:25:45;3.85;;;2.03;;
56425;SDS011;42330;43.620;3.856;2022-07-24T02:28:12;3.33;;;2.40;;
56425;SDS011;42330;43.620;3.856;2022-07-24T02:30:39;3.78;;;2.25;;
56425;SDS011;42330;43.620;3.856;2022-07-24T02:33:05;4.95;;;2.72;;
56425;SDS011;42330;43.620;3.856;2022-07-24T02:35:31;2.97;;;2.20;;
56425;SDS011;42330;43.620;3.856;2022-07-24T02:37:57;3.60;;;2.30;;
56425;SDS011;42330;43.620;3.856;2022-07-24T02:40:22;3.05;;;2.20;;
56425;SDS011;42330;43.620;3.856;2022-07-24T02:42:48;3.85;;;2.20;;
56425;SDS011;42330;43.620;3.856;2022-07-24T02:45:14;4.18;;;2.40;;
56425;SDS011;42330;43.620;3.856;2022-07-24T02:47:49;5.10;;;2.35;;
56425;SDS011;42330;43.620;3.856;2022-07-24T02:50:16;2.92;;;2.00;;
56425;SDS011;42330;43.620;3.856;2022-07-24T02:52:42;5.22;;;2.20;;
56425;SDS011;42330;43.620;3.856;2022-07-24T02:55:08;3.80;;;2.40;;
56425;SDS011;42330;43.620;3.856;2022-07-24T02:57:34;3.88;;;2.20;;
56425;SDS011;42330;43.620;3.856;2022-07-24T03:00:00;3.83;;;2.28;;
56425;SDS011;42330;43.620;3.856;2022-07-24T03:02:28;3.90;;;2.22;;
56425;SDS011;42330;43.620;3.856;2022-07-24T03:04:54;3.22;;;2.00;;
56425;SDS011;42330;43.620;3.856;2022-07-24T03:07:19;3.25;;;2.22;;
56425;SDS011;42330;43.620;3.856;2022-07-24T03:09:45;4.43;;;2.35;;
56425;SDS011;42330;43.620;3.856;2022-07-24T03:12:10;4.35;;;2.33;;
56425;SDS011;42330;43.620;3.856;2022-07-24T03:14:36;8.88;;;2.53;;
56425;SDS011;42330;43.620;3.856;2022-07-24T03:17:03;3.67;;;2.20;;
56425;SDS011;42330;43.620;3.856;2022-07-24T03:19:29;3.75;;;2.55;;
56425;SDS011;42330;43.620;3.856;2022-07-24T03:21:54;5.47;;;2.33;;
56425;SDS011;42330;43.620;3.856;2022-07-24T03:24:20;2.58;;;2.30;;
56425;SDS011;42330;43.620;3.856;2022-07-24T03:26:46;3.70;;;2.58;;
56425;SDS011;42330;43.620;3.856;2022-07-24T03:29:11;3.63;;;2.60;;
56425;SDS011;42330;43.620;3.856;2022-07-24T03:31:37;5.03;;;2.58;;
56425;SDS011;42330;43.620;3.856;2022-07-24T03:34:03;5.57;;;2.80;;
56425;SDS011;42330;43.620;3.856;2022-07-24T03:36:28;4.47;;;2.60;;
56425;SDS011;42330;43.620;3.856;2022-07-24T03:38:54;5.13;;;2.45;;
56425;SDS011;42330;43.620;3.856;2022-07-24T03:41:20;5.05;;;2.60;;
56425;SDS011;42330;43.620;3.856;2022-07-24T03:43:45;3.42;;;2.42;;
56425;SDS011;42330;43.620;3.856;2022-07-24T03:46:11;6.32;;;2.97;;
56425;SDS011;42330;43.620;3.856;2022-07-24T03:48:37;6.30;;;2.88;;
56425;SDS011;42330;43.620;3.856;2022-07-24T03:51:02;4.57;;;2.85;;
56425;SDS011;42330;43.620;3.856;2022-07-24T03:53:28;4.65;;;2.65;;
56425;SDS011;42330;43.620;3.856;2022-07-24T03:55:54;4.22;;;2.70;;
56425;SDS011;42330;43.620;3.856;2022-07-24T03:58:19;3.45;;;2.60;;
56425;SDS011;42330;43.620;3.856;2022-07-24T04:00:45;4.30;;;2.80;;
56425;SDS011;42330;43.620;3.856;2022-07-24T04:03:11;5.18;;;2.63;;
56425;SDS011;42330;43.620;3.856;2022-07-24T04:05:36;4.30;;;2.75;;
56425;SDS011;42330;43.620;3.856;2022-07-24T04:08:02;6.45;;;2.95;;
56425;SDS011;42330;43.620;3.856;2022-07-24T04:10:28;4.07;;;2.60;;
56425;SDS011;42330;43.620;3.856;2022-07-24T04:12:53;5.05;;;2.72;;
56425;SDS011;42330;43.620;3.856;2022-07-24T04:15:19;3.90;;;2.92;;
56425;SDS011;42330;43.620;3.856;2022-07-24T04:17:44;10.02;;;2.83;;
56425;SDS011;42330;43.620;3.856;2022-07-24T04:20:10;3.75;;;2.80;;
56425;SDS011;42330;43.620;3.856;2022-07-24T04:22:37;2.97;;;2.63;;
56425;SDS011;42330;43.620;3.856;2022-07-24T04:25:03;4.75;;;2.83;;
56425;SDS011;42330;43.620;3.856;2022-07-24T04:27:29;5.25;;;3.10;;
56425;SDS011;42330;43.620;3.856;2022-07-24T04:29:54;8.13;;;3.00;;
56425;SDS011;42330;43.620;3.856;2022-07-24T04:32:20;5.50;;;2.78;;
56425;SDS011;42330;43.620;3.856;2022-07-24T04:34:46;4.00;;;2.50;;
56425;SDS011;42330;43.620;3.856;2022-07-24T04:37:11;3.97;;;2.45;;
56425;SDS011;42330;43.620;3.856;2022-07-24T04:39:37;3.42;;;2.58;;
56425;SDS011;42330;43.620;3.856;2022-07-24T04:42:03;4.00;;;2.60;;
56425;SDS011;42330;43.620;3.856;2022-07-24T04:44:28;5.15;;;2.40;;
56425;SDS011;42330;43.620;3.856;2022-07-24T04:46:54;4.60;;;2.75;;
56425;SDS011;42330;43.620;3.856;2022-07-24T04:49:20;6.43;;;2.53;;
56425;SDS011;42330;43.620;3.856;2022-07-24T04:51:45;3.92;;;2.50;;
56425;SDS011;42330;43.620;3.856;2022-07-24T04:54:11;5.85;;;2.90;;
56425;SDS011;42330;43.620;3.856;2022-07-24T04:56:37;4.75;;;2.92;;
56425;SDS011;42330;43.620;3.856;2022-07-24T04:59:02;6.13;;;3.00;;
56425;SDS011;42330;43.620;3.856;2022-07-24T05:01:28;4.43;;;2.60;;
56425;SDS011;42330;43.620;3.856;2022-07-24T05:03:54;4.45;;;2.80;;
56425;SDS011;42330;43.620;3.856;2022-07-24T05:06:22;6.32;;;2.67;;
56425;SDS011;42330;43.620;3.856;2022-07-24T05:08:48;4.75;;;2.95;;
56425;SDS011;42330;43.620;3.856;2022-07-24T05:11:14;4.82;;;3.00;;
56425;SDS011;42330;43.620;3.856;2022-07-24T05:13:40;7.00;;;2.67;;
56425;SDS011;42330;43.620;3.856;2022-07-24T05:16:05;3.13;;;2.78;;
56425;SDS011;42330;43.620;3.856;2022-07-24T05:18:31;4.40;;;2.88;;
56425;SDS011;42330;43.620;3.856;2022-07-24T05:20:57;7.30;;;2.88;;
56425;SDS011;42330;43.620;3.856;2022-07-24T05:23:22;7.13;;;2.80;;
56425;SDS011;42330;43.620;3.856;2022-07-24T05:25:48;4.50;;;2.58;;
56425;SDS011;42330;43.620;3.856;2022-07-24T05:28:14;4.47;;;2.80;;
56425;SDS011;42330;43.620;3.856;2022-07-24T05:30:39;7.47;;;3.08;;
56425;SDS011;42330;43.620;3.856;2022-07-24T05:33:05;8.93;;;3.60;;
56425;SDS011;42330;43.620;3.856;2022-07-24T05:35:31;7.35;;;4.07;;
56425;SDS011;42330;43.620;3.856;2022-07-24T05:37:57;6.05;;;3.72;;
56425;SDS011;42330;43.620;3.856;2022-07-24T05:40:22;7.95;;;3.28;;
56425;SDS011;42330;43.620;3.856;2022-07-24T05:42:48;7.78;;;3.35;;
56425;SDS011;42330;43.620;3.856;2022-07-24T05:45:14;4.82;;;2.88;;
56425;SDS011;42330;43.620;3.856;2022-07-24T05:47:40;5.75;;;3.30;;
56425;SDS011;42330;43.620;3.856;2022-07-24T05:50:10;4.50;;;2.70;;
56425;SDS011;42330;43.620;3.856;2022-07-24T05:52:37;4.43;;;2.65;;
56425;SDS011;42330;43.620;3.856;2022-07-24T05:55:03;4.32;;;2.95;;
56425;SDS011;42330;43.620;3.856;2022-07-24T05:57:29;3.90;;;2.60;;
56425;SDS011;42330;43.620;3.856;2022-07-24T05:59:55;3.20;;;2.60;;
56425;SDS011;42330;43.620;3.856;2022-07-24T06:02:21;4.57;;;2.50;;
56425;SDS011;42330;43.620;3.856;2022-07-24T06:04:47;5.13;;;2.60;;
56425;SDS011;42330;43.620;3.856;2022-07-24T06:07:13;3.85;;;2.22;;
56425;SDS011;42330;43.620;3.856;2022-07-24T06:09:38;3.55;;;2.50;;
56425;SDS011;42330;43.620;3.856;2022-07-24T06:12:04;4.03;;;2.42;;
56425;SDS011;42330;43.620;3.856;2022-07-24T06:14:31;3.72;;;2.30;;
56425;SDS011;42330;43.620;3.856;2022-07-24T06:16:57;4.43;;;2.22;;
56425;SDS011;42330;43.620;3.856;2022-07-24T06:19:22;5.28;;;2.80;;
56425;SDS011;42330;43.620;3.856;2022-07-24T06:21:48;4.13;;;2.55;;
56425;SDS011;42330;43.620;3.856;2022-07-24T06:24:14;5.72;;;2.58;;
56425;SDS011;42330;43.620;3.856;2022-07-24T06:26:40;5.53;;;2.40;;
56425;SDS011;42330;43.620;3.856;2022-07-24T06:29:05;3.58;;;2.35;;
56425;SDS011;42330;43.620;3.856;2022-07-24T06:31:31;4.15;;;2.63;;
56425;SDS011;42330;43.620;3.856;2022-07-24T06:33:57;3.05;;;2.20;;
56425;SDS011;42330;43.620;3.856;2022-07-24T06:36:22;3.72;;;2.30;;
56425;SDS011;42330;43.620;3.856;2022-07-24T06:38:48;5.22;;;2.83;;
56425;SDS011;42330;43.620;3.856;2022-07-24T06:41:14;11.52;;;2.90;;
56425;SDS011;42330;43.620;3.856;2022-07-24T06:43:40;8.88;;;2.65;;
56425;SDS011;42330;43.620;3.856;2022-07-24T06:46:05;6.20;;;2.72;;
56425;SDS011;42330;43.620;3.856;2022-07-24T06:48:31;5.05;;;2.53;;
56425;SDS011;42330;43.620;3.856;2022-07-24T06:50:57;6.35;;;2.60;;
56425;SDS011;42330;43.620;3.856;2022-07-24T06:53:23;4.45;;;2.33;;
56425;SDS011;42330;43.620;3.856;2022-07-24T06:55:48;8.00;;;2.40;;
56425;SDS011;42330;43.620;3.856;2022-07-24T06:58:17;5.93;;;2.50;;
56425;SDS011;42330;43.620;3.856;2022-07-24T07:00:43;3.67;;;2.28;;
56425;SDS011;42330;43.620;3.856;2022-07-24T07:03:09;5.43;;;2.40;;
56425;SDS011;42330;43.620;3.856;2022-07-24T07:05:35;3.75;;;2.33;;
56425;SDS011;42330;43.620;3.856;2022-07-24T07:08:00;3.60;;;2.50;;
56425;SDS011;42330;43.620;3.856;2022-07-24T07:10:26;4.32;;;2.38;;
56425;SDS011;42330;43.620;3.856;2022-07-24T07:12:52;3.65;;;2.15;;
56425;SDS011;42330;43.620;3.856;2022-07-24T07:15:18;2.60;;;1.95;;
56425;SDS011;42330;43.620;3.856;2022-07-24T07:17:43;3.97;;;2.45;;
56425;SDS011;42330;43.620;3.856;2022-07-24T07:20:10;4.00;;;2.20;;
56425;SDS011;42330;43.620;3.856;2022-07-24T07:22:36;5.28;;;2.30;;
56425;SDS011;42330;43.620;3.856;2022-07-24T07:25:02;7.97;;;2.85;;
56425;SDS011;42330;43.620;3.856;2022-07-24T07:27:28;3.85;;;2.50;;
56425;SDS011;42330;43.620;3.856;2022-07-24T07:29:54;2.70;;;2.40;;
56425;SDS011;42330;43.620;3.856;2022-07-24T07:32:19;3.15;;;2.40;;
56425;SDS011;42330;43.620;3.856;2022-07-24T07:34:45;7.38;;;2.38;;
56425;SDS011;42330;43.620;3.856;2022-07-24T07:37:11;5.88;;;2.17;;
56425;SDS011;42330;43.620;3.856;2022-07-24T07:39:36;3.25;;;2.35;;
56425;SDS011;42330;43.620;3.856;2022-07-24T07:42:02;4.32;;;2.38;;
56425;SDS011;42330;43.620;3.856;2022-07-24T07:44:28;2.70;;;2.20;;
56425;SDS011;42330;43.620;3.856;2022-07-24T07:46:54;5.38;;;2.30;;
56425;SDS011;42330;43.620;3.856;2022-07-24T07:49:19;5.30;;;2.33;;
56425;SDS011;42330;43.620;3.856;2022-07-24T07:51:45;3.97;;;2.30;;
56425;SDS011;42330;43.620;3.856;2022-07-24T07:54:13;2.92;;;2.17;;
56425;SDS011;42330;43.620;3.856;2022-07-24T07:56:39;3.35;;;2.25;;
56425;SDS011;42330;43.620;3.856;2022-07-24T07:59:05;5.60;;;2.30;;
56425;SDS011;42330;43.620;3.856;2022-07-24T08:01:31;3.20;;;2.20;;
56425;SDS011;42330;43.620;3.856;2022-07-24T08:03:57;3.80;;;2.40;;
56425;SDS011;42330;43.620;3.856;2022-07-24T08:06:22;4.40;;;2.40;;
56425;SDS011;42330;43.620;3.856;2022-07-24T08:08:48;5.80;;;2.30;;
56425;SDS011;42330;43.620;3.856;2022-07-24T08:11:14;2.97;;;2.20;;
56425;SDS011;42330;43.620;3.856;2022-07-24T08:13:39;3.83;;;2.20;;
56425;SDS011;42330;43.620;3.856;2022-07-24T08:16:05;3.45;;;2.03;;
56425;SDS011;42330;43.620;3.856;2022-07-24T08:18:31;3.92;;;2.30;;
56425;SDS011;42330;43.620;3.856;2022-07-24T08:20:57;3.08;;;2.17;;
56425;SDS011;42330;43.620;3.856;2022-07-24T08:23:22;3.45;;;2.15;;
56425;SDS011;42330;43.620;3.856;2022-07-24T08:25:48;5.75;;;2.10;;
56425;SDS011;42330;43.620;3.856;2022-07-24T08:28:14;4.25;;;2.20;;
56425;SDS011;42330;43.620;3.856;2022-07-24T08:30:39;4.35;;;2.22;;
56425;SDS011;42330;43.620;3.856;2022-07-24T08:33:05;3.88;;;2.10;;
56425;SDS011;42330;43.620;3.856;2022-07-24T08:35:31;2.67;;;1.92;;
56425;SDS011;42330;43.620;3.856;2022-07-24T08:37:57;2.78;;;2.17;;
56425;SDS011;42330;43.620;3.856;2022-07-24T08:40:22;7.22;;;2.13;;
56425;SDS011;42330;43.620;3.856;2022-07-24T08:42:48;3.38;;;2.10;;
56425;SDS011;42330;43.620;3.856;2022-07-24T08:45:14;4.78;;;1.90;;
56425;SDS011;42330;43.620;3.856;2022-07-24T08:47:41;4.20;;;2.10;;
56425;SDS011;42330;43.620;3.856;2022-07-24T08:50:07;3.88;;;1.98;;
56425;SDS011;42330;43.620;3.856;2022-07-24T08:52:34;2.97;;;2.15;;
56425;SDS011;42330;43.620;3.856;2022-07-24T08:55:02;5.03;;;2.08;;
56425;SDS011;42330;43.620;3.856;2022-07-24T08:57:28;5.20;;;2.42;;
56425;SDS011;42330;43.620;3.856;2022-07-24T08:59:54;3.20;;;2.03;;
56425;SDS011;42330;43.620;3.856;2022-07-24T09:02:20;3.70;;;2.45;;
56425;SDS011;42330;43.620;3.856;2022-07-24T09:04:47;12.40;;;2.38;;
56425;SDS011;42330;43.620;3.856;2022-07-24T09:07:15;3.25;;;2.03;;
56425;SDS011;42330;43.620;3.856;2022-07-24T09:09:43;7.93;;;2.42;;
56425;SDS011;42330;43.620;3.856;2022-07-24T09:12:23;5.28;;;2.70;;
56425;SDS011;42330;43.620;3.856;2022-07-24T09:14:49;3.20;;;1.98;;
56425;SDS011;42330;43.620;3.856;2022-07-24T09:17:16;3.83;;;2.20;;
56425;SDS011;42330;43.620;3.856;2022-07-24T09:22:23;3.65;;;1.90;;
56425;SDS011;42330;43.620;3.856;2022-07-24T09:25:12;3.05;;;2.25;;
56425;SDS011;42330;43.620;3.856;2022-07-24T09:27:43;3.60;;;2.00;;
56425;SDS011;42330;43.620;3.856;2022-07-24T09:35:37;3.83;;;2.25;;
56425;SDS011;42330;43.620;3.856;2022-07-24T09:38:05;2.30;;;2.10;;
56425;SDS011;42330;43.620;3.856;2022-07-24T09:40:33;4.93;;;2.13;;
56425;SDS011;42330;43.620;3.856;2022-07-24T09:43:13;4.38;;;2.22;;
56425;SDS011;42330;43.620;3.856;2022-07-24T09:51:04;4.38;;;2.17;;
56425;SDS011;42330;43.620;3.856;2022-07-24T09:53:39;4.13;;;2.30;;
56425;SDS011;42330;43.620;3.856;2022-07-24T09:58:34;5.05;;;2.25;;
56425;SDS011;42330;43.620;3.856;2022-07-24T10:01:02;3.10;;;2.22;;
56425;SDS011;42330;43.620;3.856;2022-07-24T10:03:31;3.67;;;2.30;;
56425;SDS011;42330;43.620;3.856;2022-07-24T10:05:58;4.13;;;2.30;;
56425;SDS011;42330;43.620;3.856;2022-07-24T10:08:26;2.92;;;1.85;;
56425;SDS011;42330;43.620;3.856;2022-07-24T10:10:52;4.63;;;2.28;;
56425;SDS011;42330;43.620;3.856;2022-07-24T10:13:19;4.15;;;2.30;;
56425;SDS011;42330;43.620;3.856;2022-07-24T10:16:27;3.38;;;2.22;;
56425;SDS011;42330;43.620;3.856;2022-07-24T10:21:07;4.22;;;2.33;;
56425;SDS011;42330;43.620;3.856;2022-07-24T10:29:14;4.95;;;2.30;;
56425;SDS011;42330;43.620;3.856;2022-07-24T10:31:48;5.28;;;2.30;;
56425;SDS011;42330;43.620;3.856;2022-07-24T10:37:14;4.55;;;2.33;;
56425;SDS011;42330;43.620;3.856;2022-07-24T10:42:29;3.85;;;2.17;;
56425;SDS011;42330;43.620;3.856;2022-07-24T10:47:44;5.40;;;2.28;;
56425;SDS011;42330;43.620;3.856;2022-07-24T10:50:11;5.38;;;2.30;;
56425;SDS011;42330;43.620;3.856;2022-07-24T10:52:37;3.38;;;2.30;;
56425;SDS011;42330;43.620;3.856;2022-07-24T10:57:54;4.57;;;2.00;;
56425;SDS011;42330;43.620;3.856;2022-07-24T11:08:32;6.32;;;1.95;;
56425;SDS011;42330;43.620;3.856;2022-07-24T11:11:09;7.10;;;2.20;;
56425;SDS011;42330;43.620;3.856;2022-07-24T11:18:37;5.10;;;2.20;;
56425;SDS011;42330;43.620;3.856;2022-07-24T11:21:04;5.43;;;2.10;;
56425;SDS011;42330;43.620;3.856;2022-07-24T11:23:30;3.03;;;2.13;;
56425;SDS011;42330;43.620;3.856;2022-07-24T11:26:39;3.42;;;2.40;;
56425;SDS011;42330;43.620;3.856;2022-07-24T11:29:10;4.93;;;2.20;;
56425;SDS011;42330;43.620;3.856;2022-07-24T11:31:43;3.42;;;1.90;;
56425;SDS011;42330;43.620;3.856;2022-07-24T11:34:11;3.75;;;2.10;;
56425;SDS011;42330;43.620;3.856;2022-07-24T11:36:41;4.10;;;2.15;;
56425;SDS011;42330;43.620;3.856;2022-07-24T11:39:13;4.22;;;2.08;;
56425;SDS011;42330;43.620;3.856;2022-07-24T11:41:52;5.53;;;2.22;;
56425;SDS011;42330;43.620;3.856;2022-07-24T11:46:51;4.38;;;2.00;;
56425;SDS011;42330;43.620;3.856;2022-07-24T11:49:17;5.85;;;2.03;;
56425;SDS011;42330;43.620;3.856;2022-07-24T11:51:46;3.42;;;2.20;;
56425;SDS011;42330;43.620;3.856;2022-07-24T11:54:15;5.15;;;2.15;;
56425;SDS011;42330;43.620;3.856;2022-07-24T11:56:52;5.78;;;2.17;;
56425;SDS011;42330;43.620;3.856;2022-07-24T11:59:26;7.95;;;2.13;;
56425;SDS011;42330;43.620;3.856;2022-07-24T12:02:09;4.43;;;2.20;;
56425;SDS011;42330;43.620;3.856;2022-07-24T12:04:37;5.25;;;2.00;;
56425;SDS011;42330;43.620;3.856;2022-07-24T12:07:05;2.97;;;2.00;;
56425;SDS011;42330;43.620;3.856;2022-07-24T12:09:52;5.35;;;1.98;;
56425;SDS011;42330;43.620;3.856;2022-07-24T12:15:08;4.57;;;2.33;;
56425;SDS011;42330;43.620;3.856;2022-07-24T12:17:53;2.80;;;1.98;;
56425;SDS011;42330;43.620;3.856;2022-07-24T12:20:24;3.72;;;2.10;;
56425;SDS011;42330;43.620;3.856;2022-07-24T12:22:59;3.25;;;2.15;;
56425;SDS011;42330;43.620;3.856;2022-07-24T12:25:27;5.55;;;2.25;;
56425;SDS011;42330;43.620;3.856;2022-07-24T12:28:01;2.58;;;1.80;;
56425;SDS011;42330;43.620;3.856;2022-07-24T12:30:38;5.03;;;2.30;;
56425;SDS011;42330;43.620;3.856;2022-07-24T12:41:11;3.10;;;1.85;;
56425;SDS011;42330;43.620;3.856;2022-07-24T12:43:55;4.97;;;2.17;;
56425;SDS011;42330;43.620;3.856;2022-07-24T12:49:08;3.08;;;2.00;;
56425;SDS011;42330;43.620;3.856;2022-07-24T12:56:56;5.07;;;2.13;;
56425;SDS011;42330;43.620;3.856;2022-07-24T13:01:59;4.05;;;2.10;;
56425;SDS011;42330;43.620;3.856;2022-07-24T13:04:29;5.60;;;2.05;;
56425;SDS011;42330;43.620;3.856;2022-07-24T13:06:59;4.97;;;1.85;;
56425;SDS011;42330;43.620;3.856;2022-07-24T13:09:26;3.72;;;2.30;;
56425;SDS011;42330;43.620;3.856;2022-07-24T13:11:53;3.92;;;1.92;;
56425;SDS011;42330;43.620;3.856;2022-07-24T13:14:20;4.32;;;2.00;;
56425;SDS011;42330;43.620;3.856;2022-07-24T13:16:48;4.18;;;2.00;;
56425;SDS011;42330;43.620;3.856;2022-07-24T13:19:18;3.50;;;1.98;;
56425;SDS011;42330;43.620;3.856;2022-07-24T13:21:44;7.93;;;1.75;;
56425;SDS011;42330;43.620;3.856;2022-07-24T13:24:11;4.45;;;2.10;;
56425;SDS011;42330;43.620;3.856;2022-07-24T13:26:38;3.33;;;1.83;;
56425;SDS011;42330;43.620;3.856;2022-07-24T13:29:06;4.78;;;1.80;;
56425;SDS011;42330;43.620;3.856;2022-07-24T13:31:32;5.85;;;1.80;;
56425;SDS011;42330;43.620;3.856;2022-07-24T13:33:58;3.20;;;1.60;;
56425;SDS011;42330;43.620;3.856;2022-07-24T13:36:24;2.78;;;1.80;;
56425;SDS011;42330;43.620;3.856;2022-07-24T13:38:50;4.25;;;1.70;;
56425;SDS011;42330;43.620;3.856;2022-07-24T13:41:16;4.35;;;1.88;;
56425;SDS011;42330;43.620;3.856;2022-07-24T13:43:43;4.50;;;1.65;;
56425;SDS011;42330;43.620;3.856;2022-07-24T13:46:10;2.78;;;1.65;;
56425;SDS011;42330;43.620;3.856;2022-07-24T13:48:35;4.35;;;1.75;;
56425;SDS011;42330;43.620;3.856;2022-07-24T13:51:01;2.78;;;1.75;;
56425;SDS011;42330;43.620;3.856;2022-07-24T13:53:27;4.55;;;1.83;;
56425;SDS011;42330;43.620;3.856;2022-07-24T13:55:53;4.70;;;1.70;;
56425;SDS011;42330;43.620;3.856;2022-07-24T13:58:18;4.05;;;1.45;;
56425;SDS011;42330;43.620;3.856;2022-07-24T14:00:44;2.42;;;1.65;;
56425;SDS011;42330;43.620;3.856;2022-07-24T14:03:09;3.45;;;1.73;;
56425;SDS011;42330;43.620;3.856;2022-07-24T14:05:35;4.78;;;1.67;;
56425;SDS011;42330;43.620;3.856;2022-07-24T14:08:01;5.00;;;2.00;;
56425;SDS011;42330;43.620;3.856;2022-07-24T14:10:27;3.03;;;1.75;;
56425;SDS011;42330;43.620;3.856;2022-07-24T14:12:52;5.90;;;1.90;;
56425;SDS011;42330;43.620;3.856;2022-07-24T14:15:18;5.43;;;1.70;;
56425;SDS011;42330;43.620;3.856;2022-07-24T14:17:44;6.30;;;1.80;;
56425;SDS011;42330;43.620;3.856;2022-07-24T14:20:11;6.78;;;1.77;;
56425;SDS011;42330;43.620;3.856;2022-07-24T14:22:38;2.75;;;1.58;;
56425;SDS011;42330;43.620;3.856;2022-07-24T14:25:05;5.47;;;1.60;;
56425;SDS011;42330;43.620;3.856;2022-07-24T14:27:32;4.97;;;1.77;;
56425;SDS011;42330;43.620;3.856;2022-07-24T14:29:58;3.20;;;1.58;;
56425;SDS011;42330;43.620;3.856;2022-07-24T14:32:24;2.78;;;1.50;;
56425;SDS011;42330;43.620;3.856;2022-07-24T14:34:50;2.70;;;1.60;;
56425;SDS011;42330;43.620;3.856;2022-07-24T14:37:16;4.22;;;1.73;;
56425;SDS011;42330;43.620;3.856;2022-07-24T14:39:42;4.50;;;1.80;;
56425;SDS011;42330;43.620;3.856;2022-07-24T14:42:07;3.33;;;1.52;;
56425;SDS011;42330;43.620;3.856;2022-07-24T14:44:34;4.35;;;1.88;;
56425;SDS011;42330;43.620;3.856;2022-07-24T14:47:00;4.60;;;1.90;;
56425;SDS011;42330;43.620;3.856;2022-07-24T14:49:26;4.32;;;1.95;;
56425;SDS011;42330;43.620;3.856;2022-07-24T14:51:52;3.03;;;1.80;;
56425;SDS011;42330;43.620;3.856;2022-07-24T14:54:18;3.95;;;1.77;;
56425;SDS011;42330;43.620;3.856;2022-07-24T14:56:44;3.00;;;1.60;;
56425;SDS011;42330;43.620;3.856;2022-07-24T14:59:10;2.42;;;1.67;;
56425;SDS011;42330;43.620;3.856;2022-07-24T15:01:36;3.92;;;1.80;;
56425;SDS011;42330;43.620;3.856;2022-07-24T15:04:01;4.32;;;1.80;;
56425;SDS011;42330;43.620;3.856;2022-07-24T15:06:28;3.10;;;1.67;;
56425;SDS011;42330;43.620;3.856;2022-07-24T15:08:54;3.58;;;1.60;;
56425;SDS011;42330;43.620;3.856;2022-07-24T15:11:20;5.90;;;1.77;;
56425;SDS011;42330;43.620;3.856;2022-07-24T15:13:50;2.88;;;1.70;;
56425;SDS011;42330;43.620;3.856;2022-07-24T15:16:19;5.30;;;1.80;;
56425;SDS011;42330;43.620;3.856;2022-07-24T15:18:45;2.92;;;1.80;;
56425;SDS011;42330;43.620;3.856;2022-07-24T15:21:11;3.25;;;1.77;;
56425;SDS011;42330;43.620;3.856;2022-07-24T15:23:37;3.05;;;1.80;;
56425;SDS011;42330;43.620;3.856;2022-07-24T15:26:03;4.18;;;1.63;;
56425;SDS011;42330;43.620;3.856;2022-07-24T15:28:29;4.40;;;1.70;;
56425;SDS011;42330;43.620;3.856;2022-07-24T15:30:55;2.83;;;1.67;;
56425;SDS011;42330;43.620;3.856;2022-07-24T15:33:21;3.38;;;1.65;;
56425;SDS011;42330;43.620;3.856;2022-07-24T15:35:46;6.38;;;1.55;;
56425;SDS011;42330;43.620;3.856;2022-07-24T15:38:12;3.13;;;1.52;;
56425;SDS011;42330;43.620;3.856;2022-07-24T15:40:39;5.03;;;2.03;;
56425;SDS011;42330;43.620;3.856;2022-07-24T15:43:05;4.72;;;1.80;;
56425;SDS011;42330;43.620;3.856;2022-07-24T15:45:31;3.92;;;1.73;;
56425;SDS011;42330;43.620;3.856;2022-07-24T15:47:56;3.85;;;1.60;;
56425;SDS011;42330;43.620;3.856;2022-07-24T15:50:22;3.13;;;1.48;;
56425;SDS011;42330;43.620;3.856;2022-07-24T15:52:48;2.72;;;1.60;;
56425;SDS011;42330;43.620;3.856;2022-07-24T15:55:14;3.65;;;1.60;;
56425;SDS011;42330;43.620;3.856;2022-07-24T15:57:39;1.98;;;1.40;;
56425;SDS011;42330;43.620;3.856;2022-07-24T16:00:05;3.95;;;1.70;;